Southeast Iowa Regional Airport
KBRL : now visible

Airfield :











YOU CAN JOIN US ON...

 
LOGIN :

Register | Disclaimer

   EN    FR    IT 

 









Legend :    VFR   Marginal VFR   IFR   Intensive IFR   Very Intensive IFR
Visi :
Ceiling :
>= 8 km
>= 3000ft
5 to 8 km
1000 to 3000 ft
1500m to 5 km
500 to 1000 ft
800 to 1500m
200 to 500 ft
< 800m
< 200 ft
Symbols :   Thunderstorms  Fog  Heavy snow  Heavy precipitations  Wind > 20 kt






- Airport Elevation : 698 ft
- IATA code : BRL


KBRL - Southeast Iowa Regional

CURRENT METAR :
  • 181053Z AUTO 20005KT 2SM BR OVC002 01/M01 A2973 RMK AO2 SLP074 T00061006

EXPIRED METARs :
  • 181025Z AUTO 20005KT 2SM BR OVC002 01/M01 A2974 RMK AO2 T00061006
  • 181005Z AUTO 19006KT 3SM BR OVC002 01/M01 A2974 RMK AO2 T00061006
  • 180953Z AUTO 16006KT 2 1/2SM BR OVC003 01/M01 A2974 RMK AO2 SLP079 I1000 T00061006
  • 180853Z AUTO 16005KT 4SM BR OVC004 01/M01 A2979 RMK AO2 SLP095 60009 I3006 T00061006 56042
  • 180815Z AUTO 15006KT 3SM BR OVC004 01/M01 A2982 RMK AO2 T00061006

TAF KBRL
Valid from the 18 at 08:00 until the 19 at 06:00 UTC


180812Z 1808/1906 16007KT 3SM -DZ OVC004
FM181200 21010KT 1SM -RA BR OVC002
FM181400 25015G25KT 2SM -SHSN OVC006
FM181600 31022G32KT P6SM OVC012
FM190000 30015G25KT P6SM BKN025



MET'MAP, your aeronautical weather chart ! - Copyright ORBIFLY December 2007 - Disclaimer

ORBIFLY MET'MAP TEAM :

Programming & Development : Alexandra Zaïnal
Concept & original design : Baudouin d'Aumeries
Assistance for programming : Marc-Olivier Méhu
Technical & hardware support : Manuel Goepfert

Contact : metmap@orbifly.com




SOURCES & CREDITS :

   NOAA       Earth
Advisory